createdAt,value
2022-11-18T00:01:47.754Z,77.75
2022-11-18T00:04:14.493Z,77.79
2022-11-18T00:06:41.150Z,77.48
2022-11-18T00:09:08.591Z,77.79
2022-11-18T00:11:54.078Z,77.51
2022-11-18T00:14:24.666Z,77.91
2022-11-18T00:16:51.224Z,77.59
2022-11-18T00:19:19.201Z,77.80
2022-11-18T00:21:46.098Z,77.83
2022-11-18T00:24:12.719Z,77.90
2022-11-18T00:26:39.342Z,77.91
2022-11-18T00:29:06.470Z,78.00
2022-11-18T00:31:33.119Z,78.00
2022-11-18T00:34:02.798Z,78.10
2022-11-18T00:36:29.586Z,77.92
2022-11-18T00:38:56.277Z,77.90
2022-11-18T00:41:22.937Z,77.83
2022-11-18T00:43:49.569Z,77.73
2022-11-18T00:46:16.248Z,77.79
2022-11-18T00:48:42.860Z,78.02
2022-11-18T00:51:18.750Z,78.08
2022-11-18T00:53:45.648Z,77.97
2022-11-18T00:56:12.254Z,78.12
2022-11-18T00:58:38.932Z,78.03
2022-11-18T01:01:05.865Z,77.99
2022-11-18T01:03:32.599Z,78.21
2022-11-18T01:05:59.289Z,78.05
2022-11-18T01:08:26.127Z,77.76
2022-11-18T01:10:52.863Z,78.06
2022-11-18T01:13:20.236Z,78.12
2022-11-18T01:15:50.344Z,78.18
2022-11-18T01:18:17.534Z,78.16
2022-11-18T01:20:44.752Z,77.91
2022-11-18T01:23:11.736Z,77.99
2022-11-18T01:25:41.678Z,77.69
2022-11-18T01:28:08.348Z,77.99
2022-11-18T01:30:38.632Z,77.73
2022-11-18T01:33:05.348Z,77.89
2022-11-18T01:35:36.037Z,77.78
2022-11-18T01:38:03.185Z,77.96
2022-11-18T01:40:29.900Z,77.60
2022-11-18T01:42:56.556Z,77.47
2022-11-18T01:45:38.711Z,77.41
2022-11-18T01:48:07.698Z,77.46
2022-11-18T01:50:35.029Z,77.56
2022-11-18T01:53:03.644Z,77.41
2022-11-18T01:55:31.688Z,77.49
2022-11-18T01:58:00.873Z,77.68
2022-11-18T02:00:27.477Z,77.32
2022-11-18T02:02:54.201Z,77.23
2022-11-18T02:05:20.831Z,77.34
2022-11-18T02:07:47.458Z,77.54
2022-11-18T02:10:18.561Z,77.44
2022-11-18T02:12:48.171Z,77.61
2022-11-18T02:15:15.204Z,77.81
2022-11-18T02:17:45.452Z,77.71
2022-11-18T02:20:13.528Z,77.48
2022-11-18T02:22:52.439Z,77.55
2022-11-18T02:25:34.390Z,77.50
2022-11-18T02:28:01.036Z,77.65
2022-11-18T02:30:27.708Z,77.50
2022-11-18T02:32:55.757Z,77.61
2022-11-18T02:35:24.934Z,77.66
2022-11-18T02:37:54.874Z,77.65
2022-11-18T02:40:23.405Z,77.39
2022-11-18T02:42:52.401Z,77.42
2022-11-18T02:45:19.229Z,77.79
2022-11-18T02:47:46.397Z,77.77
2022-11-18T02:50:14.300Z,77.79
2022-11-18T02:52:40.984Z,77.62
2022-11-18T02:55:08.291Z,77.77
2022-11-18T02:57:35.256Z,77.65
2022-11-18T03:00:01.994Z,77.57
2022-11-18T03:02:28.684Z,77.71
2022-11-18T03:04:56.206Z,77.81
2022-11-18T03:07:26.001Z,77.72
2022-11-18T03:09:52.798Z,77.42
2022-11-18T03:12:24.409Z,77.45
2022-11-18T03:15:00.476Z,77.12
2022-11-18T03:17:32.891Z,76.98
2022-11-18T03:20:03.479Z,77.05
2022-11-18T03:22:35.304Z,77.20
2022-11-18T03:25:09.531Z,77.04
2022-11-18T03:27:42.244Z,77.27
2022-11-18T03:30:10.192Z,76.91
2022-11-18T03:32:38.113Z,77.03
2022-11-18T03:35:09.330Z,77.10
2022-11-18T03:37:36.012Z,76.76
2022-11-18T03:40:13.992Z,76.94
2022-11-18T03:42:40.667Z,76.99
2022-11-18T03:45:10.395Z,76.66
2022-11-18T03:47:39.294Z,76.91
2022-11-18T03:50:07.962Z,76.68
2022-11-18T03:52:35.021Z,76.52
2022-11-18T03:55:02.972Z,76.68
2022-11-18T03:57:35.367Z,77.10
2022-11-18T04:00:11.731Z,77.11
2022-11-18T04:02:38.648Z,76.92
2022-11-18T04:05:06.071Z,77.10
2022-11-18T04:07:34.081Z,77.14
2022-11-18T04:10:20.472Z,76.94
2022-11-18T04:12:49.027Z,77.04
2022-11-18T04:15:15.750Z,77.31
2022-11-18T04:17:45.471Z,77.03
2022-11-18T04:20:16.580Z,77.20
2022-11-18T04:22:43.290Z,77.23
2022-11-18T04:25:10.296Z,77.08
2022-11-18T04:27:36.999Z,77.21
2022-11-18T04:30:04.465Z,77.05
2022-11-18T04:32:31.179Z,76.91
2022-11-18T04:35:50.759Z,76.99
2022-11-18T04:38:21.774Z,76.64
2022-11-18T04:43:46.567Z,76.44
2022-11-18T04:46:16.252Z,76.21
2022-11-18T04:48:43.097Z,76.38
2022-11-18T04:51:09.722Z,76.29
2022-11-18T04:53:36.643Z,76.29
2022-11-18T04:56:06.847Z,76.44
2022-11-18T04:58:33.777Z,77.53
2022-11-18T05:01:00.417Z,77.83
2022-11-18T05:03:27.103Z,77.26
2022-11-18T05:05:53.696Z,77.21
2022-11-18T05:08:20.342Z,76.89
2022-11-18T05:10:47.010Z,76.45
2022-11-18T05:13:13.627Z,76.65
2022-11-18T05:15:40.191Z,76.18
2022-11-18T05:18:06.816Z,76.19
2022-11-18T05:20:37.357Z,75.75
2022-11-18T05:23:06.841Z,75.39
2022-11-18T05:25:33.517Z,75.49
2022-11-18T05:28:00.119Z,75.07
2022-11-18T05:30:26.720Z,75.28
2022-11-18T05:32:53.358Z,75.08
2022-11-18T05:35:20.009Z,74.51
2022-11-18T05:37:46.603Z,74.65
2022-11-18T05:40:13.218Z,74.36
2022-11-18T05:42:58.609Z,74.15
2022-11-18T05:45:25.266Z,74.00
2022-11-18T05:48:01.027Z,73.83
2022-11-18T05:50:27.623Z,73.67
2022-11-18T05:52:54.416Z,73.84
2022-11-18T05:55:21.132Z,73.80
2022-11-18T05:57:48.177Z,73.84
2022-11-18T06:00:15.164Z,73.56
2022-11-18T06:02:41.903Z,73.69
2022-11-18T06:05:08.743Z,73.72
2022-11-18T06:07:37.331Z,73.29
2022-11-18T06:10:05.991Z,73.13
2022-11-18T06:12:35.010Z,73.16
2022-11-18T06:15:06.277Z,72.80
2022-11-18T06:17:35.552Z,72.84
2022-11-18T06:20:02.505Z,73.03
2022-11-18T06:22:29.122Z,73.06
2022-11-18T06:24:55.766Z,73.23
2022-11-18T06:27:22.391Z,73.22
2022-11-18T06:29:49.048Z,73.28
2022-11-18T06:32:15.731Z,73.23
2022-11-18T06:34:42.346Z,73.54
2022-11-18T06:37:15.212Z,73.51
2022-11-18T06:39:41.834Z,73.54
2022-11-18T06:42:08.544Z,73.40
2022-11-18T06:44:35.270Z,73.55
2022-11-18T06:47:02.729Z,73.20
2022-11-18T06:49:29.459Z,73.20
2022-11-18T06:51:56.186Z,73.45
2022-11-18T06:54:22.894Z,73.05
2022-11-18T06:56:57.190Z,73.18
2022-11-18T06:59:25.023Z,73.21
2022-11-18T07:01:53.607Z,73.41
2022-11-18T07:04:20.690Z,73.09
2022-11-18T07:06:48.388Z,73.28
2022-11-18T07:09:16.261Z,73.21
2022-11-18T07:11:43.481Z,73.31
2022-11-18T07:14:10.252Z,73.46
2022-11-18T07:16:36.955Z,73.17
2022-11-18T07:19:08.244Z,73.45
2022-11-18T07:21:35.021Z,73.36
2022-11-18T07:24:01.783Z,73.43
2022-11-18T07:26:28.420Z,73.20
2022-11-18T07:28:55.053Z,73.30
2022-11-18T07:31:21.735Z,73.28
2022-11-18T07:33:48.809Z,73.15
2022-11-18T07:36:16.714Z,73.11
2022-11-18T07:38:44.712Z,73.21
2022-11-18T07:41:13.167Z,72.88
2022-11-18T07:43:40.853Z,72.93
2022-11-18T07:46:11.936Z,72.77
2022-11-18T07:48:38.614Z,72.79
2022-11-18T07:51:06.166Z,72.99
2022-11-18T07:53:34.838Z,72.67
2022-11-18T07:56:02.026Z,72.71
2022-11-18T07:58:28.717Z,73.14
2022-11-18T08:00:56.065Z,73.07
2022-11-18T08:03:27.473Z,73.10
2022-11-18T08:05:59.371Z,73.76
2022-11-18T08:08:27.166Z,73.78
2022-11-18T08:10:57.794Z,73.22
2022-11-18T08:13:26.152Z,73.15
2022-11-18T08:15:54.389Z,73.12
2022-11-18T08:18:22.252Z,73.11
2022-11-18T08:20:49.605Z,72.92
2022-11-18T08:23:16.684Z,72.96
2022-11-18T08:25:44.059Z,72.80
2022-11-18T08:28:11.390Z,72.58
2022-11-18T08:30:38.201Z,72.82
2022-11-18T08:33:04.862Z,72.49
2022-11-18T08:35:32.075Z,72.55
2022-11-18T08:37:58.998Z,72.36
2022-11-18T08:40:25.696Z,72.21
2022-11-18T08:42:52.650Z,72.27
2022-11-18T08:45:19.367Z,72.37
2022-11-18T08:47:48.546Z,72.36
2022-11-18T08:50:15.191Z,72.18
2022-11-18T08:52:41.817Z,72.13
2022-11-18T08:55:08.559Z,71.97
2022-11-18T08:57:35.164Z,71.90
2022-11-18T09:00:01.957Z,72.05
2022-11-18T09:02:28.756Z,72.13
2022-11-18T09:04:55.359Z,72.00
2022-11-18T09:07:22.094Z,72.04
2022-11-18T09:09:48.788Z,71.69
2022-11-18T09:12:17.666Z,71.90
2022-11-18T09:17:31.484Z,72.04
2022-11-18T09:19:58.122Z,71.79
2022-11-18T09:22:24.766Z,71.70
2022-11-18T09:24:51.584Z,71.83
2022-11-18T09:27:18.351Z,72.09
2022-11-18T09:29:45.291Z,71.96
2022-11-18T09:32:12.087Z,71.88
2022-11-18T09:34:38.675Z,72.07
2022-11-18T09:37:06.907Z,72.08
2022-11-18T09:39:39.763Z,72.01
2022-11-18T09:42:16.732Z,71.67
2022-11-18T09:45:02.188Z,71.75
2022-11-18T09:47:33.036Z,71.84
2022-11-18T09:50:26.822Z,71.65
2022-11-18T09:53:02.368Z,71.83
2022-11-18T09:55:29.006Z,71.98
2022-11-18T09:57:56.083Z,72.07
2022-11-18T10:00:24.096Z,71.81
2022-11-18T10:03:05.094Z,71.97
2022-11-18T10:05:33.784Z,71.54
2022-11-18T10:08:05.364Z,71.68
2022-11-18T10:10:38.306Z,71.59
2022-11-18T10:13:11.294Z,71.45
2022-11-18T10:15:44.007Z,71.55
2022-11-18T10:18:45.009Z,71.26
2022-11-18T10:21:09.452Z,71.46
2022-11-18T10:23:39.071Z,71.38
2022-11-18T10:26:05.651Z,71.63
2022-11-18T10:28:32.311Z,71.32
2022-11-18T10:31:06.253Z,71.43
2022-11-18T10:33:32.955Z,71.52
2022-11-18T10:36:08.883Z,71.47
2022-11-18T10:38:35.563Z,71.53
2022-11-18T10:41:03.004Z,71.36
2022-11-18T10:43:46.562Z,71.61
2022-11-18T10:46:19.517Z,71.34
2022-11-18T10:48:46.143Z,71.14
2022-11-18T10:51:23.280Z,71.27
2022-11-18T10:53:49.901Z,71.02
2022-11-18T10:56:16.503Z,71.08
2022-11-18T10:58:44.167Z,70.73
2022-11-18T11:01:16.084Z,70.40
2022-11-18T11:03:42.883Z,70.32
2022-11-18T11:06:24.064Z,70.07
2022-11-18T11:08:51.726Z,69.83
2022-11-18T11:11:26.172Z,69.83
2022-11-18T11:13:58.638Z,69.83
2022-11-18T11:16:26.569Z,69.31
2022-11-18T11:18:55.690Z,69.22
2022-11-18T11:21:25.334Z,68.98
2022-11-18T11:23:51.939Z,68.35
2022-11-18T11:29:27.426Z,67.88
2022-11-18T11:32:03.254Z,67.35
2022-11-18T11:34:35.944Z,67.08
2022-11-18T11:37:05.573Z,67.03
2022-11-18T11:39:51.304Z,66.85
2022-11-18T11:42:20.875Z,66.99
2022-11-18T11:44:57.100Z,66.96
2022-11-18T11:47:42.680Z,67.10
2022-11-18T11:50:20.503Z,67.11
2022-11-18T11:52:55.075Z,66.98
2022-11-18T11:55:21.655Z,67.18
2022-11-18T11:58:13.614Z,66.84
2022-11-18T12:00:41.275Z,66.85
2022-11-18T12:03:26.775Z,67.02
2022-11-18T12:05:53.454Z,66.80
2022-11-18T12:08:26.378Z,66.79
2022-11-18T12:11:08.452Z,66.48
2022-11-18T12:13:40.960Z,66.45
2022-11-18T12:16:13.589Z,66.42
2022-11-18T12:18:46.267Z,66.74
2022-11-18T12:21:35.018Z,66.61
2022-11-18T12:24:17.280Z,66.62
2022-11-18T12:26:44.435Z,66.17
2022-11-18T12:29:20.585Z,66.40
2022-11-18T12:31:47.764Z,66.00
2022-11-18T12:34:19.020Z,66.10
2022-11-18T12:36:45.787Z,66.02
2022-11-18T12:39:24.780Z,65.51
2022-11-18T12:42:10.709Z,65.25
2022-11-18T12:44:39.360Z,64.82
2022-11-18T12:47:10.038Z,64.51
2022-11-18T12:49:36.652Z,64.17
2022-11-18T12:52:04.167Z,64.14
2022-11-18T12:54:30.768Z,63.66
2022-11-18T12:57:18.265Z,63.23
2022-11-18T12:59:44.889Z,62.71
2022-11-18T13:02:11.801Z,62.59
2022-11-18T13:04:45.099Z,62.20
2022-11-18T13:07:31.317Z,61.58
2022-11-18T13:09:58.100Z,61.25
2022-11-18T13:12:28.002Z,61.23
2022-11-18T13:15:13.473Z,60.90
2022-11-18T13:17:54.871Z,60.39
2022-11-18T13:20:31.292Z,60.26
2022-11-18T13:23:17.191Z,60.46
2022-11-18T13:25:45.856Z,60.10
2022-11-18T13:28:12.456Z,59.70
2022-11-18T13:30:43.139Z,59.67
2022-11-18T13:33:10.180Z,59.59
2022-11-18T13:35:36.782Z,59.74
2022-11-18T13:38:03.435Z,59.71
2022-11-18T13:40:31.675Z,59.30
2022-11-18T13:42:58.285Z,59.16
2022-11-18T13:45:26.569Z,59.11
2022-11-18T13:47:55.412Z,59.31
2022-11-18T13:50:38.522Z,59.01
2022-11-18T13:53:23.513Z,58.76
2022-11-18T13:55:54.884Z,58.57
2022-11-18T13:58:55.836Z,58.61
2022-11-18T14:01:23.195Z,58.77
2022-11-18T14:03:58.805Z,58.46
2022-11-18T14:06:28.485Z,58.49
2022-11-18T14:09:13.925Z,58.69
2022-11-18T14:11:41.969Z,58.78
2022-11-18T14:14:09.734Z,59.32
2022-11-18T14:16:37.327Z,59.63
2022-11-18T14:19:04.052Z,59.47
2022-11-18T14:21:31.552Z,59.21
2022-11-18T14:23:59.673Z,59.37
2022-11-18T14:26:26.988Z,58.98
2022-11-18T14:28:54.412Z,59.29
2022-11-18T14:31:25.234Z,59.28
2022-11-18T14:34:13.743Z,59.57
2022-11-18T14:36:40.944Z,59.74
2022-11-18T14:39:27.503Z,59.80
2022-11-18T14:41:54.671Z,59.82
2022-11-18T14:44:21.978Z,59.91
2022-11-18T14:46:49.946Z,59.97
2022-11-18T14:49:18.510Z,60.35
2022-11-18T14:51:45.659Z,60.73
2022-11-18T14:54:20.824Z,60.95
2022-11-18T14:56:52.440Z,61.06
2022-11-18T14:59:20.300Z,61.12
2022-11-18T15:01:47.442Z,61.11
2022-11-18T15:04:15.848Z,61.43
2022-11-18T15:06:42.547Z,61.54
2022-11-18T15:09:09.271Z,61.44
2022-11-18T15:11:35.914Z,61.48
2022-11-18T15:14:02.900Z,61.89
2022-11-18T15:16:30.095Z,61.62
2022-11-18T15:19:00.420Z,61.67
2022-11-18T15:21:27.345Z,61.83
2022-11-18T15:23:54.091Z,62.12
2022-11-18T15:26:24.796Z,62.37
2022-11-18T15:28:52.392Z,62.40
2022-11-18T15:31:19.055Z,62.26
2022-11-18T15:33:46.138Z,62.59
2022-11-18T15:36:13.935Z,62.72
2022-11-18T15:38:41.016Z,62.67
2022-11-18T15:41:08.069Z,62.47
2022-11-18T15:43:35.677Z,62.77
2022-11-18T15:46:02.284Z,62.95
2022-11-18T15:48:28.969Z,62.88
2022-11-18T15:50:58.402Z,63.20
2022-11-18T15:53:25.010Z,63.03
2022-11-18T15:55:51.647Z,63.17
2022-11-18T15:58:18.304Z,63.44
2022-11-18T16:00:45.415Z,63.30
2022-11-18T16:03:12.080Z,63.57
2022-11-18T16:05:38.704Z,63.80
2022-11-18T16:08:05.455Z,64.00
2022-11-18T16:10:50.871Z,64.13
2022-11-18T16:13:23.461Z,64.44
2022-11-18T16:15:50.083Z,64.69
2022-11-18T16:18:18.063Z,64.66
2022-11-18T16:20:44.755Z,65.22
2022-11-18T16:23:11.400Z,65.14
2022-11-18T16:25:42.866Z,65.37
2022-11-18T16:28:09.458Z,65.18
2022-11-18T16:30:54.872Z,65.36
2022-11-18T16:33:21.586Z,65.44
2022-11-18T16:35:48.352Z,65.58
2022-11-18T16:38:14.960Z,65.61
2022-11-18T16:40:43.393Z,66.08
2022-11-18T16:43:12.840Z,65.95
2022-11-18T16:45:39.614Z,66.13
2022-11-18T16:48:06.315Z,66.60
2022-11-18T16:50:33.077Z,66.80
2022-11-18T16:52:59.736Z,66.83
2022-11-18T16:55:26.357Z,67.36
2022-11-18T16:57:52.969Z,67.49
2022-11-18T17:00:19.764Z,67.63
2022-11-18T17:02:46.414Z,67.66
2022-11-18T17:05:13.807Z,67.51
2022-11-18T17:07:40.450Z,67.61
2022-11-18T17:10:19.666Z,67.70
2022-11-18T17:12:47.016Z,67.75
2022-11-18T17:15:14.274Z,67.68
2022-11-18T17:17:42.133Z,67.97
2022-11-18T17:20:08.928Z,68.04
2022-11-18T17:22:35.576Z,68.14
2022-11-18T17:25:05.359Z,68.18
2022-11-18T17:27:32.337Z,68.28
2022-11-18T17:29:59.050Z,68.36
2022-11-18T17:32:25.666Z,68.50
2022-11-18T17:34:52.387Z,68.50
2022-11-18T17:37:19.012Z,68.66
2022-11-18T17:39:45.598Z,68.74
2022-11-18T17:42:17.587Z,68.75
2022-11-18T17:44:47.380Z,68.77
2022-11-18T17:47:14.044Z,68.60
2022-11-18T17:49:42.337Z,68.81
2022-11-18T17:52:09.159Z,68.79
2022-11-18T17:54:35.824Z,68.71
2022-11-18T17:57:02.433Z,68.93
2022-11-18T17:59:29.064Z,69.09
2022-11-18T18:01:59.261Z,69.21
2022-11-18T18:04:26.600Z,68.93
2022-11-18T18:06:53.609Z,69.17
2022-11-18T18:09:28.569Z,69.10
2022-11-18T18:11:58.780Z,69.26
2022-11-18T18:14:25.396Z,69.25
2022-11-18T18:16:52.185Z,69.22
2022-11-18T18:19:20.140Z,69.24
2022-11-18T18:21:47.145Z,69.29
2022-11-18T18:24:15.465Z,69.07
2022-11-18T18:26:42.293Z,69.05
2022-11-18T18:29:09.034Z,69.11
2022-11-18T18:31:36.507Z,69.35
2022-11-18T18:34:03.603Z,69.47
2022-11-18T18:36:30.424Z,69.21
2022-11-18T18:38:58.379Z,69.47
2022-11-18T18:41:25.381Z,69.77
2022-11-18T18:43:52.286Z,69.60
2022-11-18T18:46:29.143Z,69.59
2022-11-18T18:48:57.279Z,69.85
2022-11-18T18:51:24.566Z,69.86
2022-11-18T18:53:51.640Z,69.65
2022-11-18T18:56:18.266Z,70.02
2022-11-18T18:58:50.359Z,69.74
2022-11-18T19:01:17.591Z,69.97
2022-11-18T19:03:46.698Z,70.06
2022-11-18T19:06:53.222Z,70.00
2022-11-18T19:09:13.530Z,69.90
2022-11-18T19:12:05.274Z,69.98
2022-11-18T19:14:42.255Z,69.80
2022-11-18T19:17:12.866Z,70.04
2022-11-18T19:20:00.673Z,70.02
2022-11-18T19:22:31.503Z,70.16
2022-11-18T19:28:09.600Z,70.19
2022-11-18T19:31:21.062Z,70.29
2022-11-18T19:33:47.764Z,70.22
2022-11-18T19:36:14.800Z,69.95
2022-11-18T19:38:41.509Z,70.37
2022-11-18T19:41:09.705Z,70.48
2022-11-18T19:43:36.477Z,70.31
2022-11-18T19:46:03.266Z,70.41
2022-11-18T19:48:29.947Z,70.42
2022-11-18T19:51:06.923Z,70.34
2022-11-18T19:53:35.158Z,70.48
2022-11-18T19:56:03.265Z,70.19
2022-11-18T19:58:33.412Z,70.49
2022-11-18T20:01:08.373Z,70.20
2022-11-18T20:03:35.274Z,70.52
2022-11-18T20:06:02.381Z,70.49
2022-11-18T20:08:30.665Z,70.80
2022-11-18T20:11:00.775Z,70.84
2022-11-18T20:13:30.406Z,70.84
2022-11-18T20:16:04.461Z,70.68
2022-11-18T20:18:31.268Z,71.02
2022-11-18T20:21:04.417Z,70.75
2022-11-18T20:23:31.089Z,71.12
2022-11-18T20:25:58.033Z,70.81
2022-11-18T20:28:24.714Z,70.77
2022-11-18T20:30:55.432Z,70.92
2022-11-18T20:33:22.068Z,71.15
2022-11-18T20:35:48.784Z,70.94
2022-11-18T20:38:15.449Z,71.04
2022-11-18T20:40:42.130Z,70.79
2022-11-18T20:43:13.269Z,70.49
2022-11-18T20:45:43.771Z,70.73
2022-11-18T20:48:11.179Z,70.71
2022-11-18T20:50:38.385Z,70.76
2022-11-18T20:53:05.613Z,70.95
2022-11-18T20:55:36.068Z,70.88
2022-11-18T20:58:02.755Z,71.18
2022-11-18T21:00:29.390Z,71.16
2022-11-18T21:02:56.162Z,71.00
2022-11-18T21:05:22.828Z,71.13
2022-11-18T21:07:50.614Z,71.32
2022-11-18T21:10:17.805Z,71.24
2022-11-18T21:13:06.518Z,71.48
2022-11-18T21:15:33.298Z,71.40
2022-11-18T21:17:59.948Z,71.41
2022-11-18T21:20:45.416Z,71.46
2022-11-18T21:23:12.157Z,71.41
2022-11-18T21:25:38.966Z,71.72
2022-11-18T21:28:05.711Z,71.70
2022-11-18T21:30:32.497Z,71.68
2022-11-18T21:32:59.163Z,71.65
2022-11-18T21:35:25.883Z,71.88
2022-11-18T21:37:52.654Z,71.86
2022-11-18T21:40:19.402Z,72.00
2022-11-18T21:42:46.031Z,71.89
2022-11-18T21:45:15.960Z,72.23
2022-11-18T21:47:53.406Z,72.13
2022-11-18T21:50:22.375Z,71.89
2022-11-18T21:52:49.105Z,71.97
2022-11-18T21:55:16.792Z,71.93
2022-11-18T21:57:43.450Z,71.98
2022-11-18T22:00:13.414Z,71.77
2022-11-18T22:02:40.061Z,71.77
2022-11-18T22:05:07.476Z,71.91
2022-11-18T22:07:34.395Z,71.94
2022-11-18T22:10:01.124Z,71.78
2022-11-18T22:12:27.899Z,71.62
2022-11-18T22:14:54.572Z,71.69
2022-11-18T22:17:21.199Z,71.93
2022-11-18T22:19:47.815Z,71.92
2022-11-18T22:22:14.441Z,71.65
2022-11-18T22:24:41.053Z,71.79
2022-11-18T22:27:11.356Z,71.80
2022-11-18T22:29:38.338Z,71.58
2022-11-18T22:32:05.116Z,71.79
2022-11-18T22:34:31.733Z,71.56
2022-11-18T22:36:58.328Z,71.65
2022-11-18T22:39:24.912Z,71.83
2022-11-18T22:42:10.304Z,71.58
2022-11-18T22:44:36.987Z,71.62
2022-11-18T22:47:03.604Z,71.74
2022-11-18T22:49:30.523Z,71.91
2022-11-18T22:51:57.195Z,71.78
2022-11-18T22:54:38.256Z,71.80
2022-11-18T22:57:05.716Z,71.99
2022-11-18T22:59:32.315Z,71.95
2022-11-18T23:01:59.355Z,72.29
2022-11-18T23:04:25.967Z,72.14
2022-11-18T23:06:52.640Z,72.36
2022-11-18T23:09:19.521Z,72.45
2022-11-18T23:12:05.139Z,72.65
2022-11-18T23:14:31.817Z,72.50
2022-11-18T23:16:58.500Z,72.75
2022-11-18T23:19:25.105Z,72.52
2022-11-18T23:21:51.690Z,72.53
2022-11-18T23:24:18.820Z,72.54
2022-11-18T23:26:45.765Z,72.67
2022-11-18T23:29:15.620Z,72.66
2022-11-18T23:31:43.090Z,72.97
2022-11-18T23:34:11.802Z,72.88
2022-11-18T23:36:38.461Z,72.66
2022-11-18T23:39:05.175Z,72.80
2022-11-18T23:41:32.021Z,72.99
2022-11-18T23:43:58.769Z,72.89
2022-11-18T23:46:27.932Z,73.16
2022-11-18T23:48:56.337Z,72.83
2022-11-18T23:51:23.295Z,73.16
2022-11-18T23:53:54.149Z,73.18
2022-11-18T23:56:21.480Z,72.95
2022-11-18T23:58:49.017Z,72.88
